sensor_id;sensor_type;location;lat;lon;timestamp;temperature;humidity
62476;DHT22;50739;45.670;11.936;2023-06-14T00:03:54;20.82;78.17
62476;DHT22;50739;45.670;11.936;2023-06-14T00:08:56;20.82;78.76
62476;DHT22;50739;45.670;11.936;2023-06-14T00:13:59;20.88;78.28
62476;DHT22;50739;45.670;11.936;2023-06-14T00:19:02;20.80;78.35
62476;DHT22;50739;45.670;11.936;2023-06-14T00:24:05;20.82;78.58
62476;DHT22;50739;45.670;11.936;2023-06-14T00:29:07;20.80;78.03
62476;DHT22;50739;45.670;11.936;2023-06-14T00:34:11;20.72;78.50
62476;DHT22;50739;45.670;11.936;2023-06-14T00:39:13;20.59;78.90
62476;DHT22;50739;45.670;11.936;2023-06-14T00:44:16;20.65;78.99
62476;DHT22;50739;45.670;11.936;2023-06-14T00:49:21;20.73;79.09
62476;DHT22;50739;45.670;11.936;2023-06-14T00:54:23;20.67;79.69
62476;DHT22;50739;45.670;11.936;2023-06-14T00:59:26;20.83;78.73
62476;DHT22;50739;45.670;11.936;2023-06-14T01:04:29;20.59;79.72
62476;DHT22;50739;45.670;11.936;2023-06-14T01:09:39;20.48;80.27
62476;DHT22;50739;45.670;11.936;2023-06-14T01:14:46;20.47;80.41
62476;DHT22;50739;45.670;11.936;2023-06-14T01:19:51;20.47;80.95
62476;DHT22;50739;45.670;11.936;2023-06-14T01:24:59;20.47;80.48
62476;DHT22;50739;45.670;11.936;2023-06-14T01:30:03;20.35;80.86
62476;DHT22;50739;45.670;11.936;2023-06-14T01:35:06;20.34;80.83
62476;DHT22;50739;45.670;11.936;2023-06-14T01:40:11;20.44;80.45
62476;DHT22;50739;45.670;11.936;2023-06-14T01:45:15;20.61;79.93
62476;DHT22;50739;45.670;11.936;2023-06-14T01:50:19;20.56;79.55
62476;DHT22;50739;45.670;11.936;2023-06-14T01:55:23;20.52;80.15
62476;DHT22;50739;45.670;11.936;2023-06-14T02:00:26;20.61;79.88
62476;DHT22;50739;45.670;11.936;2023-06-14T02:05:28;20.62;79.65
62476;DHT22;50739;45.670;11.936;2023-06-14T02:10:32;20.58;79.72
62476;DHT22;50739;45.670;11.936;2023-06-14T02:15:34;20.49;80.00
62476;DHT22;50739;45.670;11.936;2023-06-14T02:20:37;20.47;80.17
62476;DHT22;50739;45.670;11.936;2023-06-14T02:25:41;20.59;79.07
62476;DHT22;50739;45.670;11.936;2023-06-14T02:30:45;20.56;78.95
62476;DHT22;50739;45.670;11.936;2023-06-14T02:35:48;21.02;77.71
62476;DHT22;50739;45.670;11.936;2023-06-14T02:40:52;20.78;78.95
62476;DHT22;50739;45.670;11.936;2023-06-14T02:45:54;20.52;79.63
62476;DHT22;50739;45.670;11.936;2023-06-14T02:50:56;20.03;80.94
62476;DHT22;50739;45.670;11.936;2023-06-14T02:56:00;19.83;81.81
62476;DHT22;50739;45.670;11.936;2023-06-14T03:01:05;19.97;81.20
62476;DHT22;50739;45.670;11.936;2023-06-14T03:06:08;19.78;81.80
62476;DHT22;50739;45.670;11.936;2023-06-14T03:11:15;19.68;81.70
62476;DHT22;50739;45.670;11.936;2023-06-14T03:16:17;19.80;81.56
62476;DHT22;50739;45.670;11.936;2023-06-14T03:21:20;20.04;80.52
62476;DHT22;50739;45.670;11.936;2023-06-14T03:26:24;19.98;81.27
62476;DHT22;50739;45.670;11.936;2023-06-14T03:31:28;20.03;81.17
62476;DHT22;50739;45.670;11.936;2023-06-14T03:36:33;20.01;80.88
62476;DHT22;50739;45.670;11.936;2023-06-14T03:41:37;19.78;81.65
62476;DHT22;50739;45.670;11.936;2023-06-14T03:46:39;19.93;80.92
62476;DHT22;50739;45.670;11.936;2023-06-14T03:51:41;19.98;81.00
62476;DHT22;50739;45.670;11.936;2023-06-14T03:56:45;19.90;81.18
62476;DHT22;50739;45.670;11.936;2023-06-14T04:01:48;20.06;81.70
62476;DHT22;50739;45.670;11.936;2023-06-14T04:06:50;20.13;81.57
62476;DHT22;50739;45.670;11.936;2023-06-14T04:11:54;20.06;81.87
62476;DHT22;50739;45.670;11.936;2023-06-14T04:16:56;20.44;80.54
62476;DHT22;50739;45.670;11.936;2023-06-14T04:21:59;20.35;80.53
62476;DHT22;50739;45.670;11.936;2023-06-14T04:27:04;20.18;81.33
62476;DHT22;50739;45.670;11.936;2023-06-14T04:32:08;20.48;80.25
62476;DHT22;50739;45.670;11.936;2023-06-14T04:37:11;20.47;80.03
62476;DHT22;50739;45.670;11.936;2023-06-14T04:42:15;20.49;79.83
62476;DHT22;50739;45.670;11.936;2023-06-14T04:47:21;20.64;79.15
62476;DHT22;50739;45.670;11.936;2023-06-14T04:52:23;20.67;79.29
62476;DHT22;50739;45.670;11.936;2023-06-14T04:57:28;20.71;78.78
62476;DHT22;50739;45.670;11.936;2023-06-14T05:02:31;20.85;78.94
62476;DHT22;50739;45.670;11.936;2023-06-14T05:07:33;20.78;79.33
62476;DHT22;50739;45.670;11.936;2023-06-14T05:12:37;20.85;79.64
62476;DHT22;50739;45.670;11.936;2023-06-14T05:17:40;20.80;80.58
62476;DHT22;50739;45.670;11.936;2023-06-14T05:22:42;20.86;80.56
62476;DHT22;50739;45.670;11.936;2023-06-14T05:27:46;20.95;80.77
62476;DHT22;50739;45.670;11.936;2023-06-14T05:32:48;21.04;80.28
62476;DHT22;50739;45.670;11.936;2023-06-14T05:37:51;21.16;80.18
62476;DHT22;50739;45.670;11.936;2023-06-14T05:42:54;21.19;80.51
62476;DHT22;50739;45.670;11.936;2023-06-14T05:47:57;21.23;78.64
62476;DHT22;50739;45.670;11.936;2023-06-14T05:52:59;21.23;78.57
62476;DHT22;50739;45.670;11.936;2023-06-14T05:58:03;21.44;78.84
62476;DHT22;50739;45.670;11.936;2023-06-14T06:03:05;21.41;78.24
62476;DHT22;50739;45.670;11.936;2023-06-14T06:08:10;21.50;77.51
62476;DHT22;50739;45.670;11.936;2023-06-14T06:13:14;21.59;77.83
62476;DHT22;50739;45.670;11.936;2023-06-14T06:18:16;21.71;77.95
62476;DHT22;50739;45.670;11.936;2023-06-14T06:23:18;21.85;75.77
62476;DHT22;50739;45.670;11.936;2023-06-14T06:28:22;22.02;74.77
62476;DHT22;50739;45.670;11.936;2023-06-14T06:33:24;22.33;74.99
62476;DHT22;50739;45.670;11.936;2023-06-14T06:38:26;22.35;74.07
62476;DHT22;50739;45.670;11.936;2023-06-14T06:43:30;22.58;71.56
62476;DHT22;50739;45.670;11.936;2023-06-14T06:48:32;22.56;71.99
62476;DHT22;50739;45.670;11.936;2023-06-14T06:53:34;22.78;69.31
62476;DHT22;50739;45.670;11.936;2023-06-14T06:58:38;23.12;69.17
62476;DHT22;50739;45.670;11.936;2023-06-14T07:03:40;23.03;69.35
62476;DHT22;50739;45.670;11.936;2023-06-14T07:08:42;23.01;68.29
62476;DHT22;50739;45.670;11.936;2023-06-14T07:13:46;23.12;66.24
62476;DHT22;50739;45.670;11.936;2023-06-14T07:18:49;23.06;66.13
62476;DHT22;50739;45.670;11.936;2023-06-14T07:23:52;23.33;66.32
62476;DHT22;50739;45.670;11.936;2023-06-14T07:28:55;23.54;64.04
62476;DHT22;50739;45.670;11.936;2023-06-14T07:33:58;23.70;63.59
62476;DHT22;50739;45.670;11.936;2023-06-14T07:39:00;23.74;62.90
62476;DHT22;50739;45.670;11.936;2023-06-14T07:44:05;23.89;63.37
62476;DHT22;50739;45.670;11.936;2023-06-14T07:49:08;24.02;61.80
62476;DHT22;50739;45.670;11.936;2023-06-14T07:54:10;24.21;63.09
62476;DHT22;50739;45.670;11.936;2023-06-14T07:59:13;24.29;64.07
62476;DHT22;50739;45.670;11.936;2023-06-14T08:04:16;24.66;62.97
62476;DHT22;50739;45.670;11.936;2023-06-14T08:09:19;24.79;63.36
62476;DHT22;50739;45.670;11.936;2023-06-14T08:14:23;24.73;62.40
62476;DHT22;50739;45.670;11.936;2023-06-14T08:19:27;24.70;59.81
62476;DHT22;50739;45.670;11.936;2023-06-14T08:24:30;24.86;59.82
62476;DHT22;50739;45.670;11.936;2023-06-14T08:29:33;24.88;59.02
62476;DHT22;50739;45.670;11.936;2023-06-14T08:34:35;24.88;60.27
62476;DHT22;50739;45.670;11.936;2023-06-14T08:39:38;24.94;59.98
62476;DHT22;50739;45.670;11.936;2023-06-14T08:44:41;25.21;59.96
62476;DHT22;50739;45.670;11.936;2023-06-14T08:49:46;25.39;59.82
62476;DHT22;50739;45.670;11.936;2023-06-14T08:54:49;25.62;56.78
62476;DHT22;50739;45.670;11.936;2023-06-14T08:59:53;25.74;57.82
62476;DHT22;50739;45.670;11.936;2023-06-14T09:04:55;25.74;57.59
62476;DHT22;50739;45.670;11.936;2023-06-14T09:10:08;25.84;59.95
62476;DHT22;50739;45.670;11.936;2023-06-14T09:15:12;26.00;59.40
62476;DHT22;50739;45.670;11.936;2023-06-14T09:20:15;25.79;58.94
62476;DHT22;50739;45.670;11.936;2023-06-14T09:25:19;25.89;56.65
62476;DHT22;50739;45.670;11.936;2023-06-14T09:30:23;25.93;55.66
62476;DHT22;50739;45.670;11.936;2023-06-14T09:35:25;25.72;56.93
62476;DHT22;50739;45.670;11.936;2023-06-14T09:40:34;25.77;56.87
62476;DHT22;50739;45.670;11.936;2023-06-14T09:45:39;25.66;56.08
62476;DHT22;50739;45.670;11.936;2023-06-14T09:51:05;25.58;57.68
62476;DHT22;50739;45.670;11.936;2023-06-14T09:56:09;25.52;58.07
62476;DHT22;50739;45.670;11.936;2023-06-14T10:01:13;25.63;58.48
62476;DHT22;50739;45.670;11.936;2023-06-14T10:06:16;25.55;58.77
62476;DHT22;50739;45.670;11.936;2023-06-14T10:11:19;25.73;58.30
62476;DHT22;50739;45.670;11.936;2023-06-14T10:16:28;25.97;57.13
62476;DHT22;50739;45.670;11.936;2023-06-14T10:21:37;26.05;57.76
62476;DHT22;50739;45.670;11.936;2023-06-14T10:26:57;25.97;57.22
62476;DHT22;50739;45.670;11.936;2023-06-14T10:32:01;25.96;57.07
62476;DHT22;50739;45.670;11.936;2023-06-14T10:37:06;26.00;55.90
62476;DHT22;50739;45.670;11.936;2023-06-14T10:42:08;26.13;55.49
62476;DHT22;50739;45.670;11.936;2023-06-14T10:47:21;26.21;58.12
62476;DHT22;50739;45.670;11.936;2023-06-14T10:52:26;26.45;58.05
62476;DHT22;50739;45.670;11.936;2023-06-14T10:57:29;26.39;54.54
62476;DHT22;50739;45.670;11.936;2023-06-14T11:13:44;26.55;53.92
62476;DHT22;50739;45.670;11.936;2023-06-14T11:18:49;26.34;55.80
62476;DHT22;50739;45.670;11.936;2023-06-14T11:23:52;26.52;55.21
62476;DHT22;50739;45.670;11.936;2023-06-14T11:28:57;26.55;56.26
62476;DHT22;50739;45.670;11.936;2023-06-14T11:34:01;26.68;56.00
62476;DHT22;50739;45.670;11.936;2023-06-14T11:39:06;26.82;54.73
62476;DHT22;50739;45.670;11.936;2023-06-14T11:44:10;26.90;53.70
62476;DHT22;50739;45.670;11.936;2023-06-14T11:49:14;26.83;55.25
62476;DHT22;50739;45.670;11.936;2023-06-14T11:54:16;26.92;53.85
62476;DHT22;50739;45.670;11.936;2023-06-14T11:59:20;27.10;54.17
62476;DHT22;50739;45.670;11.936;2023-06-14T12:04:27;27.13;53.98
62476;DHT22;50739;45.670;11.936;2023-06-14T12:09:30;27.33;53.58
62476;DHT22;50739;45.670;11.936;2023-06-14T12:14:33;27.27;52.90
62476;DHT22;50739;45.670;11.936;2023-06-14T12:19:43;27.40;53.55
62476;DHT22;50739;45.670;11.936;2023-06-14T12:24:46;27.48;53.18
62476;DHT22;50739;45.670;11.936;2023-06-14T12:29:58;27.84;53.09
62476;DHT22;50739;45.670;11.936;2023-06-14T12:35:02;27.79;51.55
62476;DHT22;50739;45.670;11.936;2023-06-14T12:40:05;27.89;52.24
62476;DHT22;50739;45.670;11.936;2023-06-14T12:45:10;27.92;51.60
62476;DHT22;50739;45.670;11.936;2023-06-14T12:50:14;27.89;51.07
62476;DHT22;50739;45.670;11.936;2023-06-14T12:55:16;27.99;50.82
62476;DHT22;50739;45.670;11.936;2023-06-14T13:00:20;28.06;52.13
62476;DHT22;50739;45.670;11.936;2023-06-14T13:05:24;28.31;50.94
62476;DHT22;50739;45.670;11.936;2023-06-14T13:10:27;28.23;49.06
62476;DHT22;50739;45.670;11.936;2023-06-14T13:15:29;28.54;49.95
62476;DHT22;50739;45.670;11.936;2023-06-14T13:20:33;28.58;52.67
62476;DHT22;50739;45.670;11.936;2023-06-14T13:25:36;28.88;48.46
62476;DHT22;50739;45.670;11.936;2023-06-14T13:30:39;28.79;48.89
62476;DHT22;50739;45.670;11.936;2023-06-14T13:35:43;29.26;49.29
62476;DHT22;50739;45.670;11.936;2023-06-14T13:47:01;29.84;47.27
62476;DHT22;50739;45.670;11.936;2023-06-14T13:52:05;30.01;48.06
62476;DHT22;50739;45.670;11.936;2023-06-14T13:57:07;30.41;46.85
62476;DHT22;50739;45.670;11.936;2023-06-14T14:02:10;30.39;46.70
62476;DHT22;50739;45.670;11.936;2023-06-14T14:07:14;30.56;46.47
62476;DHT22;50739;45.670;11.936;2023-06-14T14:12:16;30.36;46.13
62476;DHT22;50739;45.670;11.936;2023-06-14T14:17:26;29.55;47.86
62476;DHT22;50739;45.670;11.936;2023-06-14T14:22:30;28.99;48.15
62476;DHT22;50739;45.670;11.936;2023-06-14T14:27:32;29.02;49.25
62476;DHT22;50739;45.670;11.936;2023-06-14T14:32:34;29.49;46.69
62476;DHT22;50739;45.670;11.936;2023-06-14T14:37:38;30.05;45.58
62476;DHT22;50739;45.670;11.936;2023-06-14T14:42:40;30.54;45.39
62476;DHT22;50739;45.670;11.936;2023-06-14T14:47:43;31.22;46.17
62476;DHT22;50739;45.670;11.936;2023-06-14T14:52:46;31.30;45.22
62476;DHT22;50739;45.670;11.936;2023-06-14T14:57:49;31.63;45.22
62476;DHT22;50739;45.670;11.936;2023-06-14T15:02:51;31.01;45.38
62476;DHT22;50739;45.670;11.936;2023-06-14T15:07:55;30.75;45.83
62476;DHT22;50739;45.670;11.936;2023-06-14T15:12:57;31.30;45.23
62476;DHT22;50739;45.670;11.936;2023-06-14T15:17:59;31.60;44.58
62476;DHT22;50739;45.670;11.936;2023-06-14T15:23:03;30.43;47.54
62476;DHT22;50739;45.670;11.936;2023-06-14T15:28:05;31.97;45.16
62476;DHT22;50739;45.670;11.936;2023-06-14T15:33:09;33.37;41.51
62476;DHT22;50739;45.670;11.936;2023-06-14T15:38:13;33.11;41.01
62476;DHT22;50739;45.670;11.936;2023-06-14T15:43:15;33.80;40.73
62476;DHT22;50739;45.670;11.936;2023-06-14T15:48:17;32.88;40.21
62476;DHT22;50739;45.670;11.936;2023-06-14T15:53:21;31.98;43.87
62476;DHT22;50739;45.670;11.936;2023-06-14T15:58:24;31.91;45.39
62476;DHT22;50739;45.670;11.936;2023-06-14T16:03:26;31.51;47.78
62476;DHT22;50739;45.670;11.936;2023-06-14T16:08:30;32.14;46.33
62476;DHT22;50739;45.670;11.936;2023-06-14T16:13:33;32.59;46.19
62476;DHT22;50739;45.670;11.936;2023-06-14T16:18:35;32.52;46.70
62476;DHT22;50739;45.670;11.936;2023-06-14T16:23:39;30.65;50.07
62476;DHT22;50739;45.670;11.936;2023-06-14T16:28:41;29.58;52.95
62476;DHT22;50739;45.670;11.936;2023-06-14T16:33:44;29.17;54.15
62476;DHT22;50739;45.670;11.936;2023-06-14T16:38:49;29.12;54.77
62476;DHT22;50739;45.670;11.936;2023-06-14T16:43:51;30.05;51.92
62476;DHT22;50739;45.670;11.936;2023-06-14T16:48:53;30.09;51.38
62476;DHT22;50739;45.670;11.936;2023-06-14T16:53:57;29.99;51.76
62476;DHT22;50739;45.670;11.936;2023-06-14T16:58:59;29.12;52.76
62476;DHT22;50739;45.670;11.936;2023-06-14T17:04:01;28.68;53.69
62476;DHT22;50739;45.670;11.936;2023-06-14T17:09:05;28.24;54.13
62476;DHT22;50739;45.670;11.936;2023-06-14T17:14:08;28.55;52.92
62476;DHT22;50739;45.670;11.936;2023-06-14T17:19:13;28.21;53.39
62476;DHT22;50739;45.670;11.936;2023-06-14T17:24:17;27.95;53.84
62476;DHT22;50739;45.670;11.936;2023-06-14T17:29:19;27.63;54.20
62476;DHT22;50739;45.670;11.936;2023-06-14T17:34:27;27.44;54.95
62476;DHT22;50739;45.670;11.936;2023-06-14T17:39:30;27.21;55.29
62476;DHT22;50739;45.670;11.936;2023-06-14T17:44:33;27.15;55.13
62476;DHT22;50739;45.670;11.936;2023-06-14T17:49:35;27.00;55.03
62476;DHT22;50739;45.670;11.936;2023-06-14T17:54:39;26.93;55.46
62476;DHT22;50739;45.670;11.936;2023-06-14T17:59:42;26.97;55.31
62476;DHT22;50739;45.670;11.936;2023-06-14T18:04:45;26.82;54.58
62476;DHT22;50739;45.670;11.936;2023-06-14T18:09:48;26.63;54.97
62476;DHT22;50739;45.670;11.936;2023-06-14T18:14:51;26.49;55.83
62476;DHT22;50739;45.670;11.936;2023-06-14T18:19:53;26.55;56.57
62476;DHT22;50739;45.670;11.936;2023-06-14T18:24:57;26.29;55.86
62476;DHT22;50739;45.670;11.936;2023-06-14T18:30:02;26.05;57.81
62476;DHT22;50739;45.670;11.936;2023-06-14T18:35:05;26.13;55.83
62476;DHT22;50739;45.670;11.936;2023-06-14T18:40:10;26.01;56.36
62476;DHT22;50739;45.670;11.936;2023-06-14T18:45:13;26.00;55.72
62476;DHT22;50739;45.670;11.936;2023-06-14T18:50:16;25.91;55.89
62476;DHT22;50739;45.670;11.936;2023-06-14T18:55:20;25.70;56.34
62476;DHT22;50739;45.670;11.936;2023-06-14T19:00:26;25.61;56.70
62476;DHT22;50739;45.670;11.936;2023-06-14T19:05:30;25.55;57.08
62476;DHT22;50739;45.670;11.936;2023-06-14T19:10:34;25.42;58.05
62476;DHT22;50739;45.670;11.936;2023-06-14T19:15:36;25.29;58.23
62476;DHT22;50739;45.670;11.936;2023-06-14T19:20:39;25.28;58.04
62476;DHT22;50739;45.670;11.936;2023-06-14T19:25:42;25.17;58.77
62476;DHT22;50739;45.670;11.936;2023-06-14T19:30:45;25.10;59.66
62476;DHT22;50739;45.670;11.936;2023-06-14T19:35:47;25.08;60.10
62476;DHT22;50739;45.670;11.936;2023-06-14T19:40:50;25.08;60.60
62476;DHT22;50739;45.670;11.936;2023-06-14T19:45:53;24.92;62.78
62476;DHT22;50739;45.670;11.936;2023-06-14T19:50:55;24.97;61.12
62476;DHT22;50739;45.670;11.936;2023-06-14T19:55:59;24.80;62.08
62476;DHT22;50739;45.670;11.936;2023-06-14T20:01:01;24.80;62.20
62476;DHT22;50739;45.670;11.936;2023-06-14T20:06:03;24.66;62.07
62476;DHT22;50739;45.670;11.936;2023-06-14T20:11:09;24.55;62.57
62476;DHT22;50739;45.670;11.936;2023-06-14T20:16:11;24.60;62.27
62476;DHT22;50739;45.670;11.936;2023-06-14T20:21:14;24.44;62.01
62476;DHT22;50739;45.670;11.936;2023-06-14T20:26:17;24.50;61.80
62476;DHT22;50739;45.670;11.936;2023-06-14T20:31:21;24.33;62.92
62476;DHT22;50739;45.670;11.936;2023-06-14T20:36:24;24.11;64.49
62476;DHT22;50739;45.670;11.936;2023-06-14T20:41:27;24.15;64.40
62476;DHT22;50739;45.670;11.936;2023-06-14T20:46:30;23.95;65.66
62476;DHT22;50739;45.670;11.936;2023-06-14T20:51:34;23.75;67.08
62476;DHT22;50739;45.670;11.936;2023-06-14T20:56:38;23.43;67.69
62476;DHT22;50739;45.670;11.936;2023-06-14T21:01:41;23.47;67.67
62476;DHT22;50739;45.670;11.936;2023-06-14T21:06:43;23.11;68.71
62476;DHT22;50739;45.670;11.936;2023-06-14T21:11:47;22.85;68.69
62476;DHT22;50739;45.670;11.936;2023-06-14T21:16:49;23.05;68.15
62476;DHT22;50739;45.670;11.936;2023-06-14T21:21:52;22.96;68.41
62476;DHT22;50739;45.670;11.936;2023-06-14T21:26:57;22.88;69.03
62476;DHT22;50739;45.670;11.936;2023-06-14T21:31:59;22.87;66.73
62476;DHT22;50739;45.670;11.936;2023-06-14T21:37:01;22.48;68.53
62476;DHT22;50739;45.670;11.936;2023-06-14T21:42:06;22.44;70.40
62476;DHT22;50739;45.670;11.936;2023-06-14T21:47:09;22.09;72.60
62476;DHT22;50739;45.670;11.936;2023-06-14T21:52:12;21.98;74.63
62476;DHT22;50739;45.670;11.936;2023-06-14T21:57:16;21.72;75.42
62476;DHT22;50739;45.670;11.936;2023-06-14T22:02:20;21.40;78.20
62476;DHT22;50739;45.670;11.936;2023-06-14T22:07:22;20.90;80.43
62476;DHT22;50739;45.670;11.936;2023-06-14T22:12:26;20.59;80.78
62476;DHT22;50739;45.670;11.936;2023-06-14T22:17:29;20.41;81.63
62476;DHT22;50739;45.670;11.936;2023-06-14T22:22:32;20.47;82.26
62476;DHT22;50739;45.670;11.936;2023-06-14T22:28:03;20.42;84.06
62476;DHT22;50739;45.670;11.936;2023-06-14T22:33:05;20.27;82.92
62476;DHT22;50739;45.670;11.936;2023-06-14T22:38:08;20.45;82.83
62476;DHT22;50739;45.670;11.936;2023-06-14T22:43:14;20.30;83.15
62476;DHT22;50739;45.670;11.936;2023-06-14T22:48:17;20.33;84.52
62476;DHT22;50739;45.670;11.936;2023-06-14T22:53:19;20.04;83.83
62476;DHT22;50739;45.670;11.936;2023-06-14T22:58:23;20.17;83.11
62476;DHT22;50739;45.670;11.936;2023-06-14T23:03:26;19.98;84.38
62476;DHT22;50739;45.670;11.936;2023-06-14T23:08:28;19.96;84.30
62476;DHT22;50739;45.670;11.936;2023-06-14T23:13:32;19.78;85.27
62476;DHT22;50739;45.670;11.936;2023-06-14T23:18:34;19.82;85.55
62476;DHT22;50739;45.670;11.936;2023-06-14T23:23:37;19.82;85.40
62476;DHT22;50739;45.670;11.936;2023-06-14T23:28:41;19.66;85.24
62476;DHT22;50739;45.670;11.936;2023-06-14T23:33:46;19.68;85.14
62476;DHT22;50739;45.670;11.936;2023-06-14T23:38:49;19.57;85.55
62476;DHT22;50739;45.670;11.936;2023-06-14T23:43:53;19.61;85.64
62476;DHT22;50739;45.670;11.936;2023-06-14T23:48:55;19.55;85.38
62476;DHT22;50739;45.670;11.936;2023-06-14T23:53:58;19.58;85.59
62476;DHT22;50739;45.670;11.936;2023-06-14T23:59:05;19.51;86.20
